createdAt,value
2018-12-15T00:00:09.168Z,1.45
2018-12-15T00:02:40.390Z,1.49
2018-12-15T00:05:11.509Z,1.50
2018-12-15T00:07:42.495Z,1.43
2018-12-15T00:10:13.592Z,1.29
2018-12-15T00:12:44.507Z,1.33
2018-12-15T00:15:15.291Z,1.28
2018-12-15T00:17:46.124Z,1.17
2018-12-15T00:20:17.027Z,1.18
2018-12-15T00:22:48.455Z,1.14
2018-12-15T00:25:19.125Z,0.99
2018-12-15T00:27:50.681Z,0.90
2018-12-15T00:30:21.407Z,0.70
2018-12-15T00:32:52.144Z,0.62
2018-12-15T00:35:22.923Z,0.56
2018-12-15T00:37:54.654Z,0.52
2018-12-15T00:40:25.477Z,0.35
2018-12-15T00:42:57.632Z,0.43
2018-12-15T00:45:28.419Z,0.31
2018-12-15T00:47:59.529Z,0.27
2018-12-15T00:50:30.421Z,0.18
2018-12-15T00:53:01.203Z,0.17
2018-12-15T00:55:31.948Z,0.28
2018-12-15T00:58:02.756Z,0.43
2018-12-15T01:00:34.737Z,0.53
2018-12-15T01:03:06.961Z,0.60
2018-12-15T01:05:37.779Z,0.77
2018-12-15T01:08:08.558Z,0.87
2018-12-15T01:10:39.482Z,1.02
2018-12-15T01:13:10.576Z,1.04
2018-12-15T01:15:46.490Z,0.99
2018-12-15T01:18:17.529Z,1.05
2018-12-15T01:20:48.243Z,1.01
2018-12-15T01:23:19.268Z,0.92
2018-12-15T01:25:49.926Z,1.04
2018-12-15T01:28:21.281Z,0.97
2018-12-15T01:30:52.693Z,1.01
2018-12-15T01:33:23.710Z,1.01
2018-12-15T01:35:54.720Z,1.14
2018-12-15T01:38:25.746Z,1.09
2018-12-15T01:40:56.938Z,1.00
2018-12-15T01:43:28.030Z,0.92
2018-12-15T01:45:59.050Z,0.85
2018-12-15T01:48:30.244Z,0.90
2018-12-15T01:51:01.325Z,0.88
2018-12-15T01:53:32.703Z,0.92
2018-12-15T01:56:04.113Z,1.03
2018-12-15T01:58:35.234Z,1.05
2018-12-15T02:01:06.232Z,1.07
2018-12-15T02:03:37.337Z,0.95
2018-12-15T02:06:08.471Z,0.89
2018-12-15T02:08:39.386Z,0.84
2018-12-15T02:11:10.493Z,0.83
2018-12-15T02:13:41.592Z,0.80
2018-12-15T02:16:12.846Z,0.71
2018-12-15T02:18:43.958Z,0.65
2018-12-15T02:21:14.952Z,0.70
2018-12-15T02:23:46.224Z,0.64
2018-12-15T02:26:17.052Z,0.72
2018-12-15T02:28:48.018Z,0.74
2018-12-15T02:31:18.888Z,0.67
2018-12-15T02:33:49.716Z,0.67
2018-12-15T02:36:21.238Z,0.62
2018-12-15T02:38:51.886Z,0.63
2018-12-15T02:41:23.446Z,0.56
2018-12-15T02:43:54.190Z,0.56
2018-12-15T02:46:25.433Z,0.61
2018-12-15T02:48:56.060Z,0.55
2018-12-15T02:51:26.873Z,0.62
2018-12-15T02:53:58.426Z,0.67
2018-12-15T02:56:29.177Z,0.78
2018-12-15T02:59:00.202Z,0.75
2018-12-15T03:01:31.848Z,0.86
2018-12-15T03:04:02.574Z,0.83
2018-12-15T03:06:34.223Z,0.92
2018-12-15T03:09:06.510Z,1.00
2018-12-15T03:11:37.448Z,0.95
2018-12-15T03:14:09.317Z,0.86
2018-12-15T03:16:46.672Z,0.68
2018-12-15T03:19:17.600Z,0.54
2018-12-15T03:21:48.140Z,0.47
2018-12-15T03:24:19.283Z,0.40
2018-12-15T03:26:50.205Z,0.19
2018-12-15T03:29:21.267Z,0.14
2018-12-15T03:31:51.975Z,0.05
2018-12-15T03:34:22.810Z,0.16
2018-12-15T03:36:53.792Z,0.12
2018-12-15T03:39:24.783Z,0.10
2018-12-15T03:41:56.953Z,0.15
2018-12-15T03:44:27.810Z,0.14
2018-12-15T03:46:58.682Z,0.23
2018-12-15T03:49:29.434Z,0.35
2018-12-15T03:52:00.206Z,0.34
2018-12-15T03:54:30.947Z,0.40
2018-12-15T03:59:24.191Z,0.38
2018-12-15T04:01:55.027Z,0.44
2018-12-15T04:04:26.149Z,0.38
2018-12-15T04:06:56.993Z,0.42
2018-12-15T04:09:27.945Z,0.41
2018-12-15T04:11:58.697Z,0.43
2018-12-15T04:14:29.609Z,0.39
2018-12-15T04:17:00.626Z,0.37
2018-12-15T04:19:31.587Z,0.30
2018-12-15T04:22:20.185Z,0.38
2018-12-15T04:24:51.028Z,0.47
2018-12-15T04:27:21.646Z,0.49
2018-12-15T04:29:53.770Z,0.43
2018-12-15T04:32:24.360Z,0.34
2018-12-15T04:34:55.190Z,0.41
2018-12-15T04:37:25.739Z,0.37
2018-12-15T04:39:56.310Z,0.30
2018-12-15T04:42:27.295Z,0.13
2018-12-15T04:44:58.108Z,0.02
2018-12-15T04:47:29.386Z,-0.07
2018-12-15T04:50:00.227Z,-0.18
2018-12-15T04:52:30.973Z,-0.34
2018-12-15T04:55:01.705Z,-0.35
2018-12-15T04:57:32.481Z,-0.42
2018-12-15T05:00:03.251Z,-0.48
2018-12-15T05:02:34.162Z,-0.63
2018-12-15T05:05:05.375Z,-0.74
2018-12-15T05:07:36.264Z,-0.79
2018-12-15T05:10:07.526Z,-0.85
2018-12-15T05:12:38.250Z,-0.93
2018-12-15T05:15:08.935Z,-0.99
2018-12-15T05:17:39.694Z,-1.08
2018-12-15T05:20:10.420Z,-1.11
2018-12-15T05:22:41.238Z,-1.19
2018-12-15T05:25:12.948Z,-1.29
2018-12-15T05:27:43.832Z,-1.33
2018-12-15T05:30:14.662Z,-1.43
2018-12-15T05:32:45.559Z,-1.45
2018-12-15T05:35:16.365Z,-1.48
2018-12-15T05:37:47.313Z,-1.50
2018-12-15T05:40:18.302Z,-1.51
2018-12-15T05:42:49.313Z,-1.58
2018-12-15T05:45:20.222Z,-1.55
2018-12-15T05:47:51.245Z,-1.49
2018-12-15T05:50:22.264Z,-1.56
2018-12-15T05:52:53.031Z,-1.62
2018-12-15T05:55:24.104Z,-1.69
2018-12-15T05:57:55.054Z,-1.70
2018-12-15T06:00:26.338Z,-1.62
2018-12-15T06:02:57.347Z,-1.65
2018-12-15T06:05:28.765Z,-1.64
2018-12-15T06:07:59.732Z,-1.72
2018-12-15T06:10:30.970Z,-1.77
2018-12-15T06:13:03.073Z,-1.81
2018-12-15T06:18:18.190Z,-1.79
2018-12-15T06:20:49.547Z,-1.86
2018-12-15T06:23:20.639Z,-1.87
2018-12-15T06:25:52.569Z,-1.88
2018-12-15T06:28:23.873Z,-1.92
2018-12-15T06:30:55.080Z,-1.96
2018-12-15T06:33:26.460Z,-2.04
2018-12-15T06:35:57.967Z,-2.07
2018-12-15T06:38:29.030Z,-2.06
2018-12-15T06:40:59.820Z,-2.16
2018-12-15T06:43:31.132Z,-2.16
2018-12-15T06:46:02.195Z,-2.22
2018-12-15T06:48:38.192Z,-2.21
2018-12-15T06:51:05.861Z,-2.26
2018-12-15T06:53:36.788Z,-2.31
2018-12-15T06:56:07.645Z,-2.26
2018-12-15T06:58:38.379Z,-2.27
2018-12-15T07:01:10.534Z,-2.26
2018-12-15T07:03:41.722Z,-2.28
2018-12-15T07:06:13.433Z,-2.25
2018-12-15T07:08:45.045Z,-2.25
2018-12-15T07:11:16.049Z,-2.20
2018-12-15T07:13:47.130Z,-2.12
2018-12-15T07:16:18.040Z,-1.28
2018-12-15T07:18:50.038Z,0.60
2018-12-15T07:21:21.429Z,2.18
2018-12-15T07:23:52.327Z,3.31
2018-12-15T07:26:23.651Z,4.28
2018-12-15T07:28:55.537Z,4.94
2018-12-15T07:31:27.010Z,5.66
2018-12-15T07:33:58.061Z,6.06
2018-12-15T07:36:28.892Z,6.64
2018-12-15T07:39:00.233Z,6.84
2018-12-15T07:41:31.067Z,7.37
2018-12-15T07:44:02.194Z,7.61
2018-12-15T07:46:33.207Z,7.95
2018-12-15T07:49:04.108Z,8.42
2018-12-15T07:51:35.101Z,8.72
2018-12-15T07:54:05.918Z,9.15
2018-12-15T07:56:38.486Z,9.17
2018-12-15T07:59:09.901Z,9.52
2018-12-15T08:01:40.674Z,9.33
2018-12-15T08:04:11.590Z,9.10
2018-12-15T08:06:42.639Z,9.44
2018-12-15T08:09:13.558Z,9.27
2018-12-15T08:11:49.516Z,9.49
2018-12-15T08:14:20.473Z,9.99
2018-12-15T08:16:51.511Z,10.22
2018-12-15T08:19:22.416Z,10.46
2018-12-15T08:21:53.718Z,10.73
2018-12-15T08:24:24.574Z,10.89
2018-12-15T08:26:55.565Z,10.44
2018-12-15T08:29:27.305Z,10.94
2018-12-15T08:31:58.287Z,10.95
2018-12-15T08:34:29.285Z,11.08
2018-12-15T08:37:00.279Z,11.68
2018-12-15T08:39:31.387Z,12.83
2018-12-15T08:42:02.808Z,12.80
2018-12-15T08:44:33.729Z,13.09
2018-12-15T08:47:05.454Z,13.46
2018-12-15T08:49:36.418Z,13.63
2018-12-15T08:52:08.650Z,13.18
2018-12-15T08:54:39.971Z,12.99
2018-12-15T08:57:13.338Z,13.07
2018-12-15T08:59:45.398Z,13.29
2018-12-15T09:02:16.580Z,13.32
2018-12-15T09:04:48.279Z,13.35
2018-12-15T09:07:20.331Z,12.65
2018-12-15T09:09:52.337Z,11.41
2018-12-15T09:12:24.210Z,9.40
2018-12-15T09:14:55.710Z,7.59
2018-12-15T09:17:26.822Z,7.88
2018-12-15T09:19:57.816Z,7.41
2018-12-15T09:22:29.551Z,9.62
2018-12-15T09:25:02.810Z,10.49
2018-12-15T09:27:33.798Z,11.17
2018-12-15T09:30:05.103Z,11.52
2018-12-15T09:32:35.919Z,12.55
2018-12-15T09:35:07.086Z,12.91
2018-12-15T09:37:38.217Z,13.89
2018-12-15T09:40:09.139Z,13.57
2018-12-15T09:42:40.120Z,12.25
2018-12-15T09:45:11.363Z,13.01
2018-12-15T09:47:42.098Z,14.02
2018-12-15T09:50:14.445Z,14.32
2018-12-15T09:52:45.542Z,14.33
2018-12-15T09:55:16.633Z,14.54
2018-12-15T09:57:47.925Z,14.18
2018-12-15T10:00:19.833Z,12.84
2018-12-15T10:02:51.375Z,12.66
2018-12-15T10:05:22.257Z,12.09
2018-12-15T10:07:53.615Z,10.48
2018-12-15T10:10:25.579Z,9.53
2018-12-15T10:12:57.416Z,9.34
2018-12-15T10:15:28.815Z,11.11
2018-12-15T10:17:59.804Z,13.01
2018-12-15T10:20:30.753Z,12.10
2018-12-15T10:23:01.895Z,9.86
2018-12-15T10:25:32.687Z,8.53
2018-12-15T10:28:03.575Z,7.81
2018-12-15T10:30:39.513Z,7.37
2018-12-15T10:33:11.043Z,6.91
2018-12-15T10:35:42.060Z,7.00
2018-12-15T10:38:12.864Z,7.98
2018-12-15T10:40:44.006Z,7.85
2018-12-15T10:43:15.326Z,8.23
2018-12-15T10:45:46.470Z,8.23
2018-12-15T10:48:17.483Z,8.18
2018-12-15T10:50:48.384Z,9.22
2018-12-15T10:53:19.086Z,9.45
2018-12-15T10:55:50.554Z,8.58
2018-12-15T10:58:21.474Z,7.82
2018-12-15T11:00:59.482Z,8.13
2018-12-15T11:03:30.397Z,7.95
2018-12-15T11:06:01.322Z,7.26
2018-12-15T11:08:32.857Z,7.21
2018-12-15T11:11:04.954Z,6.87
2018-12-15T11:13:36.274Z,6.73
2018-12-15T11:16:07.317Z,7.80
2018-12-15T11:18:38.157Z,8.95
2018-12-15T11:21:08.833Z,8.55
2018-12-15T11:23:39.763Z,7.96
2018-12-15T11:26:10.775Z,7.66
2018-12-15T11:28:42.263Z,7.14
2018-12-15T11:31:14.967Z,6.91
2018-12-15T11:33:46.084Z,6.98
2018-12-15T11:36:17.448Z,7.01
2018-12-15T11:38:48.182Z,6.75
2018-12-15T11:41:19.093Z,6.60
2018-12-15T11:43:50.269Z,6.50
2018-12-15T11:46:21.497Z,6.35
2018-12-15T11:48:52.212Z,6.64
2018-12-15T11:51:23.852Z,6.50
2018-12-15T11:53:55.186Z,6.65
2018-12-15T11:56:26.316Z,6.79
2018-12-15T11:58:57.450Z,6.75
2018-12-15T12:01:28.586Z,6.76
2018-12-15T12:03:59.646Z,6.73
2018-12-15T12:06:31.011Z,7.13
2018-12-15T12:09:03.549Z,7.03
2018-12-15T12:11:35.320Z,7.66
2018-12-15T12:14:06.972Z,8.76
2018-12-15T12:16:38.603Z,8.73
2018-12-15T12:19:09.727Z,7.86
2018-12-15T12:21:41.767Z,7.48
2018-12-15T12:24:13.918Z,7.09
2018-12-15T12:26:46.848Z,6.89
2018-12-15T12:29:18.076Z,6.71
2018-12-15T12:31:49.413Z,6.98
2018-12-15T12:34:20.792Z,8.34
2018-12-15T12:36:53.531Z,9.29
2018-12-15T12:39:26.076Z,8.91
2018-12-15T12:41:57.224Z,8.31
2018-12-15T12:44:28.367Z,7.30
2018-12-15T12:46:59.310Z,8.36
2018-12-15T12:49:30.183Z,9.53
2018-12-15T12:52:01.016Z,10.97
2018-12-15T12:54:32.166Z,11.64
2018-12-15T12:57:03.199Z,11.63
2018-12-15T12:59:35.790Z,11.54
2018-12-15T13:02:06.983Z,9.98
2018-12-15T13:04:38.585Z,9.04
2018-12-15T13:07:09.969Z,8.39
2018-12-15T13:09:40.876Z,7.83
2018-12-15T13:12:11.988Z,7.46
2018-12-15T13:14:43.041Z,7.12
2018-12-15T13:17:16.127Z,7.19
2018-12-15T13:19:48.365Z,7.43
2018-12-15T13:22:19.518Z,7.85
2018-12-15T13:24:51.540Z,7.56
2018-12-15T13:27:23.305Z,8.18
2018-12-15T13:29:54.825Z,9.33
2018-12-15T13:32:25.751Z,10.41
2018-12-15T13:34:56.860Z,10.22
2018-12-15T13:37:27.786Z,10.45
2018-12-15T13:39:59.364Z,9.57
2018-12-15T13:42:30.598Z,9.76
2018-12-15T13:45:01.560Z,10.18
2018-12-15T13:47:32.868Z,10.77
2018-12-15T13:50:10.148Z,11.01
2018-12-15T13:52:40.180Z,10.82
2018-12-15T13:55:11.169Z,10.45
2018-12-15T13:57:43.487Z,10.22
2018-12-15T14:00:14.761Z,10.61
2018-12-15T14:02:45.964Z,10.21
2018-12-15T14:05:16.930Z,10.13
2018-12-15T14:07:47.986Z,10.20
2018-12-15T14:10:19.309Z,9.99
2018-12-15T14:12:50.344Z,9.90
2018-12-15T14:15:21.529Z,9.76
2018-12-15T14:17:52.614Z,9.44
2018-12-15T14:20:24.384Z,9.30
2018-12-15T14:22:55.642Z,9.63
2018-12-15T14:25:27.152Z,9.87
2018-12-15T14:27:58.641Z,9.71
2018-12-15T14:30:29.868Z,8.89
2018-12-15T14:33:01.134Z,8.62
2018-12-15T14:35:32.547Z,7.96
2018-12-15T14:38:04.478Z,8.10
2018-12-15T14:40:36.906Z,8.08
2018-12-15T14:43:07.677Z,7.87
2018-12-15T14:45:39.381Z,8.33
2018-12-15T14:48:10.355Z,8.30
2018-12-15T14:50:41.470Z,7.88
2018-12-15T14:53:12.661Z,7.97
2018-12-15T14:55:43.533Z,8.11
2018-12-15T14:58:14.920Z,7.69
2018-12-15T15:00:46.635Z,7.65
2018-12-15T15:03:17.595Z,7.64
2018-12-15T15:05:49.348Z,7.67
2018-12-15T15:08:20.294Z,7.45
2018-12-15T15:10:51.858Z,7.13
2018-12-15T15:13:23.009Z,6.85
2018-12-15T15:15:54.151Z,6.68
2018-12-15T15:18:25.225Z,6.02
2018-12-15T15:20:56.891Z,5.37
2018-12-15T15:23:27.806Z,4.96
2018-12-15T15:25:59.695Z,4.64
2018-12-15T15:28:31.715Z,4.36
2018-12-15T15:31:03.396Z,4.15
2018-12-15T15:33:35.022Z,3.94
2018-12-15T15:36:06.180Z,3.75
2018-12-15T15:38:37.505Z,3.59
2018-12-15T15:41:10.267Z,3.42
2018-12-15T15:43:43.000Z,3.34
2018-12-15T15:46:14.738Z,3.24
2018-12-15T15:48:46.255Z,3.15
2018-12-15T15:51:18.433Z,3.02
2018-12-15T15:53:49.855Z,2.96
2018-12-15T15:56:21.186Z,2.84
2018-12-15T15:58:53.348Z,2.82
2018-12-15T16:01:24.684Z,2.77
2018-12-15T16:03:56.546Z,2.73
2018-12-15T16:06:28.532Z,2.67
2018-12-15T16:09:00.120Z,2.63
2018-12-15T16:11:33.894Z,2.59
2018-12-15T16:14:06.148Z,2.65
2018-12-15T16:16:38.013Z,2.62
2018-12-15T16:19:09.514Z,2.57
2018-12-15T16:21:41.737Z,2.66
2018-12-15T16:24:13.031Z,2.74
2018-12-15T16:26:46.204Z,2.73
2018-12-15T16:29:18.160Z,2.70
2018-12-15T16:31:49.812Z,2.68
2018-12-15T16:34:21.778Z,2.64
2018-12-15T16:36:52.786Z,2.60
2018-12-15T16:39:24.672Z,2.53
2018-12-15T16:41:56.690Z,2.41
2018-12-15T16:44:28.491Z,2.40
2018-12-15T16:47:00.306Z,2.32
2018-12-15T16:49:31.678Z,2.34
2018-12-15T16:52:03.097Z,2.28
2018-12-15T16:54:34.747Z,2.23
2018-12-15T16:57:06.305Z,2.29
2018-12-15T16:59:38.102Z,2.21
2018-12-15T17:02:10.207Z,2.25
2018-12-15T17:04:41.459Z,2.15
2018-12-15T17:07:12.768Z,2.19
2018-12-15T17:09:44.519Z,2.16
2018-12-15T17:12:16.775Z,2.06
2018-12-15T17:14:48.034Z,2.09
2018-12-15T17:17:19.586Z,2.03
2018-12-15T17:19:51.435Z,1.93
2018-12-15T17:22:24.389Z,1.94
2018-12-15T17:24:55.344Z,1.85
2018-12-15T17:27:34.154Z,1.77
2018-12-15T17:30:06.972Z,1.74
2018-12-15T17:32:38.929Z,1.70
2018-12-15T17:35:13.936Z,1.67
2018-12-15T17:37:46.117Z,1.51
2018-12-15T17:40:20.104Z,1.42
2018-12-15T17:42:53.087Z,1.41
2018-12-15T17:45:26.602Z,1.39
2018-12-15T17:47:58.316Z,1.46
2018-12-15T17:50:30.954Z,1.46
2018-12-15T17:53:02.144Z,1.49
2018-12-15T17:55:34.201Z,1.51
2018-12-15T17:58:06.893Z,1.52
2018-12-15T18:00:42.355Z,1.51
2018-12-15T18:03:13.911Z,1.42
2018-12-15T18:05:45.148Z,1.33
2018-12-15T18:08:16.366Z,1.22
2018-12-15T18:10:47.581Z,1.17
2018-12-15T18:13:18.837Z,1.07
2018-12-15T18:15:52.601Z,1.02
2018-12-15T18:18:23.572Z,0.92
2018-12-15T18:20:55.055Z,0.88
2018-12-15T18:23:26.236Z,0.84
2018-12-15T18:25:57.160Z,0.77
2018-12-15T18:28:28.300Z,0.78
2018-12-15T18:30:59.626Z,0.77
2018-12-15T18:33:36.914Z,0.66
2018-12-15T18:36:04.268Z,0.48
2018-12-15T18:38:35.194Z,0.35
2018-12-15T18:41:06.390Z,0.30
2018-12-15T18:43:37.333Z,0.24
2018-12-15T18:46:08.922Z,0.11
2018-12-15T18:48:39.799Z,0.05
2018-12-15T18:51:16.318Z,-0.03
2018-12-15T18:53:44.349Z,-0.05
2018-12-15T18:56:15.203Z,-0.06
2018-12-15T18:58:52.986Z,-0.12
2018-12-15T19:01:23.947Z,-0.17
2018-12-15T19:03:54.848Z,-0.26
2018-12-15T19:06:25.901Z,-0.35
2018-12-15T19:08:56.867Z,-0.50
2018-12-15T19:11:28.042Z,-0.63
2018-12-15T19:13:59.194Z,-0.77
2018-12-15T19:16:30.836Z,-0.87
2018-12-15T19:19:01.791Z,-0.93
2018-12-15T19:21:33.357Z,-0.97
2018-12-15T19:24:04.306Z,-0.99
2018-12-15T19:26:35.240Z,-0.97
2018-12-15T19:29:06.460Z,-0.94
2018-12-15T19:31:37.440Z,-0.93
2018-12-15T19:34:08.255Z,-0.94
2018-12-15T19:36:39.229Z,-0.97
2018-12-15T19:39:10.188Z,-1.00
2018-12-15T19:41:41.424Z,-0.97
2018-12-15T19:44:12.939Z,-0.96
2018-12-15T19:46:44.151Z,-1.00
2018-12-15T19:49:19.241Z,-1.03
2018-12-15T19:51:50.368Z,-1.01
2018-12-15T19:54:21.997Z,-1.02
2018-12-15T19:56:53.713Z,-1.09
2018-12-15T19:59:25.188Z,-1.15
2018-12-15T20:01:57.540Z,-1.25
2018-12-15T20:04:29.528Z,-1.37
2018-12-15T20:07:02.058Z,-1.52
2018-12-15T20:09:33.508Z,-1.69
2018-12-15T20:12:06.688Z,-1.75
2018-12-15T20:14:39.022Z,-1.82
2018-12-15T20:17:11.617Z,-1.89
2018-12-15T20:19:43.098Z,-1.99
2018-12-15T20:22:14.776Z,-2.06
2018-12-15T20:24:46.743Z,-2.12
2018-12-15T20:27:18.148Z,-2.17
2018-12-15T20:29:49.204Z,-2.14
2018-12-15T20:32:21.250Z,-2.14
2018-12-15T20:34:53.295Z,-2.18
2018-12-15T20:37:25.829Z,-2.17
2018-12-15T20:39:57.697Z,-2.16
2018-12-15T20:42:29.828Z,-2.15
2018-12-15T20:45:03.513Z,-2.19
2018-12-15T20:47:35.346Z,-2.20
2018-12-15T20:50:10.087Z,-2.24
2018-12-15T20:52:47.567Z,-2.30
2018-12-15T20:55:18.428Z,-2.29
2018-12-15T20:57:53.871Z,-2.25
2018-12-15T21:00:25.340Z,-2.21
2018-12-15T21:02:56.948Z,-2.22
2018-12-15T21:05:29.107Z,-2.19
2018-12-15T21:08:01.000Z,-2.30
2018-12-15T21:10:33.972Z,-2.30
2018-12-15T21:13:05.882Z,-2.29
2018-12-15T21:15:44.337Z,-2.40
2018-12-15T21:18:16.287Z,-2.55
2018-12-15T21:20:48.707Z,-2.41
2018-12-15T21:23:20.417Z,-2.42
2018-12-15T21:25:52.561Z,-2.46
2018-12-15T21:28:24.695Z,-2.51
2018-12-15T21:30:58.660Z,-2.27
2018-12-15T21:33:29.847Z,-2.18
2018-12-15T21:36:01.994Z,-2.21
2018-12-15T21:38:35.657Z,-2.31
2018-12-15T21:41:07.808Z,-2.22
2018-12-15T21:43:40.735Z,-2.29
2018-12-15T21:46:12.101Z,-2.43
2018-12-15T21:48:43.783Z,-2.49
2018-12-15T21:51:15.450Z,-2.53
2018-12-15T21:53:46.694Z,-2.56
2018-12-15T21:56:17.741Z,-2.64
2018-12-15T21:58:49.430Z,-2.71
2018-12-15T22:01:20.992Z,-2.75
2018-12-15T22:03:56.908Z,-2.79
2018-12-15T22:06:29.633Z,-2.85
2018-12-15T22:09:00.883Z,-2.92
2018-12-15T22:11:32.079Z,-2.76
2018-12-15T22:14:03.656Z,-2.67
2018-12-15T22:16:36.196Z,-2.73
2018-12-15T22:19:07.552Z,-2.78
2018-12-15T22:21:38.850Z,-2.84
2018-12-15T22:24:10.756Z,-2.91
2018-12-15T22:26:42.465Z,-2.91
2018-12-15T22:29:13.474Z,-2.93
2018-12-15T22:31:45.398Z,-2.95
2018-12-15T22:34:16.725Z,-2.95
2018-12-15T22:36:48.775Z,-2.97
2018-12-15T22:39:20.847Z,-2.99
2018-12-15T22:41:51.740Z,-3.00
2018-12-15T22:44:23.037Z,-3.03
2018-12-15T22:46:53.824Z,-3.03
2018-12-15T22:49:25.014Z,-3.06
2018-12-15T22:51:55.903Z,-3.07
2018-12-15T22:54:26.899Z,-3.01
2018-12-15T22:56:58.434Z,-3.00
2018-12-15T22:59:29.527Z,-2.95
2018-12-15T23:02:00.883Z,-2.97
2018-12-15T23:04:32.466Z,-2.98
2018-12-15T23:07:04.432Z,-2.97
2018-12-15T23:09:35.655Z,-3.01
2018-12-15T23:12:06.878Z,-3.08
2018-12-15T23:14:37.818Z,-3.15
2018-12-15T23:17:08.674Z,-3.21
2018-12-15T23:19:39.669Z,-3.30
2018-12-15T23:22:16.322Z,-3.32
2018-12-15T23:24:44.236Z,-3.39
2018-12-15T23:27:15.329Z,-3.46
2018-12-15T23:29:46.499Z,-3.47
2018-12-15T23:32:17.202Z,-3.50
2018-12-15T23:34:48.255Z,-3.51
2018-12-15T23:37:19.771Z,-3.52
2018-12-15T23:39:50.692Z,-3.48
2018-12-15T23:42:21.580Z,-3.54
2018-12-15T23:44:52.450Z,-3.58
2018-12-15T23:47:23.283Z,-3.56
2018-12-15T23:49:54.221Z,-3.51
2018-12-15T23:52:25.128Z,-3.46
2018-12-15T23:54:57.163Z,-3.40
2018-12-15T23:57:28.130Z,-3.43
2018-12-15T23:59:58.943Z,-3.47
